Observation data for McLean on 07/20/2019      Previous  Date       Current Mesonet Observations  Soil Data  Daily Summary Page  Observations in Plain Language
KMCS 200500Z 16012KT 28/16 A2989 RMK A01 T02840161  RH  049%=      5-min Rain = 0
KMCS 200505Z 16012G17KT 28/16 A2989 RMK A01 T02840160  RH  049%=      5-min Rain = 0
KMCS 200510Z 16013KT 28/16 A2989 RMK A01 T02840158  RH  049%=      5-min Rain = 0
KMCS 200515Z 16012KT 28/16 A2989 RMK A01 T02830158  RH  049%=      5-min Rain = 0
KMCS 200520Z 16012G17KT 28/16 A2989 RMK A01 T02830157  RH  049%=      5-min Rain = 0
KMCS 200525Z 16011G17KT 28/16 A299 RMK A01 T02820156  RH  049%=      5-min Rain = 0
KMCS 200530Z 17012G17KT 28/16 A299 RMK A01 T02800156  RH  049%=      5-min Rain = 0
KMCS 200535Z 16012KT 28/16 A299 RMK A01 T02790155  RH  049%=      5-min Rain = 0
KMCS 200540Z 16012KT 28/16 A299 RMK A01 T02780155  RH  049%=      5-min Rain = 0
KMCS 200545Z 16012KT 28/15 A299 RMK A01 T02770154  RH  049%=      5-min Rain = 0
KMCS 200550Z 17012G17KT 28/15 A299 RMK A01 T02760153  RH  049%=      5-min Rain = 0
KMCS 200555Z 17013G18KT 28/15 A299 RMK A01 T02760152  RH  049%=      5-min Rain = 0
KMCS 200600Z 16013KT 28/15 A299 RMK A01 T02750151  RH  049%=      5-min Rain = 0
KMCS 200605Z 17013G19KT 28/15 A299 RMK A01 T02750150  RH  049%=      5-min Rain = 0
KMCS 200610Z 17012G17KT 27/15 A299 RMK A01 T02740150  RH  049%=      5-min Rain = 0
KMCS 200615Z 17012KT 27/15 A299 RMK A01 T02740149  RH  049%=      5-min Rain = 0
KMCS 200620Z 17012KT 27/15 A299 RMK A01 T02720148  RH  049%=      5-min Rain = 0
KMCS 200625Z 17012G17KT 27/15 A2989 RMK A01 T02720148  RH  049%=      5-min Rain = 0
KMCS 200630Z 17013KT 27/15 A2989 RMK A01 T02710147  RH  049%=      5-min Rain = 0
KMCS 200635Z 17012KT 27/15 A299 RMK A01 T02700146  RH  049%=      5-min Rain = 0
KMCS 200640Z 17013KT 27/15 A2989 RMK A01 T02690146  RH  049%=      5-min Rain = 0
KMCS 200645Z 17012G18KT 27/15 A299 RMK A01 T02690145  RH  049%=      5-min Rain = 0
KMCS 200650Z 17012KT 27/14 A299 RMK A01 T02680144  RH  049%=      5-min Rain = 0
KMCS 200655Z 17012KT 27/14 A299 RMK A01 T02670144  RH  049%=      5-min Rain = 0
KMCS 200700Z 17012KT 27/14 A299 RMK A01 T02660143  RH  049%=      5-min Rain = 0
KMCS 200705Z 17012KT 27/14 A2989 RMK A01 T02650143  RH  049%=      5-min Rain = 0
KMCS 200710Z 17012KT 26/14 A2989 RMK A01 T02640143  RH  049%=      5-min Rain = 0
KMCS 200715Z 17012KT 26/14 A2989 RMK A01 T02630143  RH  050%=      5-min Rain = 0
KMCS 200720Z 17012KT 26/14 A2989 RMK A01 T02620142  RH  050%=      5-min Rain = 0
KMCS 200725Z 17011G16KT 26/14 A2989 RMK A01 T02600142  RH  050%=      5-min Rain = 0
KMCS 200730Z 17011KT 26/14 A2989 RMK A01 T02590142  RH  050%=      5-min Rain = 0
KMCS 200735Z 17012KT 26/14 A2989 RMK A01 T02580141  RH  051%=      5-min Rain = 0
KMCS 200740Z 17011KT 26/14 A2989 RMK A01 T02570142  RH  051%=      5-min Rain = 0
KMCS 200745Z 17012KT 26/14 A2989 RMK A01 T02570141  RH  051%=      5-min Rain = 0
KMCS 200750Z 17011G16KT 26/14 A2989 RMK A01 T02570141  RH  051%=      5-min Rain = 0
KMCS 200755Z 18011KT 26/14 A2989 RMK A01 T02570140  RH  051%=      5-min Rain = 0
KMCS 200800Z 18011G17KT 26/14 A2989 RMK A01 T02570140  RH  051%=      5-min Rain = 0
KMCS 200805Z 18011KT 26/14 A2989 RMK A01 T02560140  RH  051%=      5-min Rain = 0
KMCS 200810Z 18011G16KT 26/14 A2989 RMK A01 T02550140  RH  051%=      5-min Rain = 0
KMCS 200815Z 18011G16KT 25/14 A2989 RMK A01 T02540140  RH  051%=      5-min Rain = 0
KMCS 200820Z 18011KT 25/14 A2989 RMK A01 T02540140  RH  051%=      5-min Rain = 0
KMCS 200825Z 18010G15KT 25/14 A2989 RMK A01 T02530140  RH  052%=      5-min Rain = 0
KMCS 200830Z 18011KT 25/14 A2989 RMK A01 T02520140  RH  052%=      5-min Rain = 0
KMCS 200835Z 18011KT 25/14 A2988 RMK A01 T02520140  RH  052%=      5-min Rain = 0
KMCS 200840Z 18011KT 25/14 A2988 RMK A01 T02510140  RH  052%=      5-min Rain = 0
KMCS 200845Z 18012KT 25/14 A2988 RMK A01 T02510140  RH  052%=      5-min Rain = 0
KMCS 200850Z 18012KT 25/14 A2988 RMK A01 T02520139  RH  052%=      5-min Rain = 0
KMCS 200855Z 18011G17KT 25/14 A2988 RMK A01 T02530139  RH  052%=      5-min Rain = 0
KMCS 200900Z 18012KT 25/14 A2988 RMK A01 T02530139  RH  051%=      5-min Rain = 0
KMCS 200905Z 18011KT 25/14 A2988 RMK A01 T02520139  RH  052%=      5-min Rain = 0
KMCS 200910Z 18011KT 25/14 A2988 RMK A01 T02500139  RH  052%=      5-min Rain = 0
KMCS 200915Z 19011KT 25/14 A2988 RMK A01 T02500139  RH  052%=      5-min Rain = 0
KMCS 200920Z 19011KT 25/14 A2988 RMK A01 T02490140  RH  053%=      5-min Rain = 0
KMCS 200925Z 19011KT 25/14 A2989 RMK A01 T02480139  RH  053%=      5-min Rain = 0
KMCS 200930Z 19011KT 25/14 A2988 RMK A01 T02470139  RH  053%=      5-min Rain = 0
KMCS 200935Z 19012KT 25/14 A2988 RMK A01 T02460140  RH  054%=      5-min Rain = 0
KMCS 200940Z 19011KT 24/14 A2988 RMK A01 T02440140  RH  054%=      5-min Rain = 0
KMCS 200945Z 19011KT 24/14 A2988 RMK A01 T02440140  RH  054%=      5-min Rain = 0
KMCS 200950Z 19011KT 24/14 A2988 RMK A01 T02430140  RH  055%=      5-min Rain = 0
KMCS 200955Z 19010KT 24/14 A2988 RMK A01 T02420140  RH  055%=      5-min Rain = 0
KMCS 201000Z 20010KT 24/14 A2988 RMK A01 T02410140  RH  055%=      5-min Rain = 0
KMCS 201005Z 19010KT 24/14 A2989 RMK A01 T02430139  RH  054%=      5-min Rain = 0
KMCS 201010Z 20011KT 24/14 A2989 RMK A01 T02430139  RH  055%=      5-min Rain = 0
KMCS 201015Z 20011KT 24/14 A2989 RMK A01 T02440139  RH  054%=      5-min Rain = 0
KMCS 201020Z 20011KT 24/14 A2989 RMK A01 T02440139  RH  054%=      5-min Rain = 0
KMCS 201025Z 20011KT 24/14 A2989 RMK A01 T02430139  RH  054%=      5-min Rain = 0
KMCS 201030Z 20011KT 24/14 A2989 RMK A01 T02440138  RH  054%=      5-min Rain = 0
KMCS 201035Z 20010KT 24/14 A2989 RMK A01 T02430138  RH  054%=      5-min Rain = 0
KMCS 201040Z 19008KT 24/14 A2989 RMK A01 T02420139  RH  055%=      5-min Rain = 0
KMCS 201045Z 19009KT 24/14 A2989 RMK A01 T02400139  RH  055%=      5-min Rain = 0
KMCS 201050Z 19009KT 24/14 A2989 RMK A01 T02390139  RH  056%=      5-min Rain = 0
KMCS 201055Z 19009KT 24/14 A299 RMK A01 T02380138  RH  056%=      5-min Rain = 0
KMCS 201100Z 19010KT 24/14 A299 RMK A01 T02390138  RH  055%=      5-min Rain = 0
KMCS 201105Z 19010KT 24/14 A299 RMK A01 T02390138  RH  055%=      5-min Rain = 0
KMCS 201110Z 19010KT 24/14 A299 RMK A01 T02370138  RH  056%=      5-min Rain = 0
KMCS 201115Z 19010KT 24/14 A299 RMK A01 T02350139  RH  057%=      5-min Rain = 0
KMCS 201120Z 19010KT 23/14 A299 RMK A01 T02330139  RH  058%=      5-min Rain = 0
KMCS 201125Z 19010KT 23/14 A299 RMK A01 T02330138  RH  058%=      5-min Rain = 0
KMCS 201130Z 19010KT 23/14 A299 RMK A01 T02340138  RH  057%=      5-min Rain = 0
KMCS 201135Z 19009KT 23/14 A299 RMK A01 T02340138  RH  057%=      5-min Rain = 0
KMCS 201140Z 19009KT 23/14 A299 RMK A01 T02330138  RH  057%=      5-min Rain = 0
KMCS 201145Z 19008KT 23/14 A299 RMK A01 T02320138  RH  058%=      5-min Rain = 0
KMCS 201150Z 19008KT 23/14 A299 RMK A01 T02310138  RH  058%=      5-min Rain = 0
KMCS 201155Z 19008KT 23/14 A299 RMK A01 T02320138  RH  058%=      5-min Rain = 0
KMCS 201200Z 20009KT 23/14 A299 RMK A01 T02340138  RH  057%=      5-min Rain = 0
KMCS 201205Z 20009KT 24/14 A299 RMK A01 T02360139  RH  057%=      5-min Rain = 0
KMCS 201210Z 19008KT 24/14 A299 RMK A01 T02360139  RH  057%=      5-min Rain = 0
KMCS 201215Z 20007KT 24/14 A299 RMK A01 T02350139  RH  057%=      5-min Rain = 0
KMCS 201220Z 20008KT 23/14 A299 RMK A01 T02340140  RH  058%=      5-min Rain = 0
KMCS 201225Z 20010KT 24/14 A299 RMK A01 T02360140  RH  057%=      5-min Rain = 0
KMCS 201230Z 20008KT 24/14 A299 RMK A01 T02370140  RH  057%=      5-min Rain = 0
KMCS 201235Z 20008KT 24/14 A299 RMK A01 T02360141  RH  058%=      5-min Rain = 0
KMCS 201240Z 20007KT 24/14 A299 RMK A01 T02370142  RH  058%=      5-min Rain = 0
KMCS 201245Z 20008KT 24/14 A299 RMK A01 T02380142  RH  057%=      5-min Rain = 0
KMCS 201250Z 20008KT 24/14 A299 RMK A01 T02390142  RH  057%=      5-min Rain = 0
KMCS 201255Z 20007G12KT 24/14 A299 RMK A01 T02400143  RH  057%=      5-min Rain = 0
KMCS 201300Z 20008KT 24/14 A299 RMK A01 T02420143  RH  057%=      5-min Rain = 0
KMCS 201305Z 20010G16KT 25/14 A299 RMK A01 T02460144  RH  055%=      5-min Rain = 0
KMCS 201310Z 20012KT 25/15 A299 RMK A01 T02490145  RH  055%=      5-min Rain = 0
KMCS 201315Z 20013KT 25/15 A299 RMK A01 T02520146  RH  054%=      5-min Rain = 0
KMCS 201320Z 20013G18KT 25/15 A299 RMK A01 T02540148  RH  054%=      5-min Rain = 0
KMCS 201325Z 20013KT 26/15 A299 RMK A01 T02560148  RH  054%=      5-min Rain = 0
KMCS 201330Z 20013KT 26/15 A299 RMK A01 T02590149  RH  053%=      5-min Rain = 0
KMCS 201335Z 20014G19KT 26/15 A299 RMK A01 T02610150  RH  052%=      5-min Rain = 0
KMCS 201340Z 20013KT 26/15 A299 RMK A01 T02630151  RH  052%=      5-min Rain = 0
KMCS 201345Z 20013G18KT 27/15 A2991 RMK A01 T02660153  RH  052%=      5-min Rain = 0
KMCS 201350Z 20013KT 27/15 A2991 RMK A01 T02680153  RH  052%=      5-min Rain = 0
KMCS 201355Z 20012KT 27/16 A2991 RMK A01 T02700155  RH  052%=      5-min Rain = 0
KMCS 201400Z 20011G17KT 27/16 A2991 RMK A01 T02720156  RH  051%=      5-min Rain = 0
KMCS 201405Z 19012G18KT 27/16 A2991 RMK A01 T02740157  RH  051%=      5-min Rain = 0
KMCS 201410Z 19013G18KT 28/16 A2991 RMK A01 T02750157  RH  051%=      5-min Rain = 0
KMCS 201415Z 20014KT 28/16 A2991 RMK A01 T02770158  RH  051%=      5-min Rain = 0
KMCS 201420Z 20013G18KT 28/16 A2991 RMK A01 T02810158  RH  049%=      5-min Rain = 0
KMCS 201425Z 20012G17KT 29/16 A2991 RMK A01 T02850160  RH  049%=      5-min Rain = 0
KMCS 201430Z 20012G17KT 29/16 A2991 RMK A01 T02870159  RH  048%=      5-min Rain = 0
KMCS 201435Z 20015KT 29/16 A2991 RMK A01 T02890156  RH  046%=      5-min Rain = 0
KMCS 201440Z 20013G18KT 29/16 A2991 RMK A01 T02920156  RH  046%=      5-min Rain = 0
KMCS 201445Z 21013G19KT 30/16 A2991 RMK A01 T02950156  RH  045%=      5-min Rain = 0
KMCS 201450Z 20015KT 30/16 A2991 RMK A01 T02960155  RH  044%=      5-min Rain = 0
KMCS 201455Z 21014G20KT 30/16 A2991 RMK A01 T02970155  RH  044%=      5-min Rain = 0
KMCS 201500Z 20014G19KT 30/16 A2991 RMK A01 T02990156  RH  044%=      5-min Rain = 0
KMCS 201505Z 20014G19KT 30/16 A2991 RMK A01 T03010155  RH  043%=      5-min Rain = 0
KMCS 201510Z 21014G20KT 30/16 A2991 RMK A01 T03020155  RH  043%=      5-min Rain = 0
KMCS 201515Z 20014KT 31/16 A299 RMK A01 T03050156  RH  043%=      5-min Rain = 0
KMCS 201520Z 20016G21KT 30/15 A299 RMK A01 T03040154  RH  042%=      5-min Rain = 0
KMCS 201525Z 21015KT 31/16 A299 RMK A01 T03070155  RH  042%=      5-min Rain = 0
KMCS 201530Z 21016KT 31/15 A299 RMK A01 T03070154  RH  041%=      5-min Rain = 0
KMCS 201535Z 20013G19KT 31/16 A2991 RMK A01 T03100158  RH  042%=      5-min Rain = 0
KMCS 201540Z 20013G18KT 31/16 A2991 RMK A01 T03120156  RH  041%=      5-min Rain = 0
KMCS 201545Z 19011G16KT 32/16 A2991 RMK A01 T03150158  RH  041%=      5-min Rain = 0
KMCS 201550Z 18012G19KT 31/16 A299 RMK A01 T03140160  RH  042%=      5-min Rain = 0
KMCS 201555Z 18012G17KT 32/16 A2991 RMK A01 T03180163  RH  041%=      5-min Rain = 0
KMCS 201600Z 20012KT 32/16 A2991 RMK A01 T03170161  RH  041%=      5-min Rain = 0
KMCS 201605Z 19012KT 32/16 A299 RMK A01 T03160161  RH  041%=      5-min Rain = 0
KMCS 201610Z 18013KT 32/16 A299 RMK A01 T03190162  RH  041%=      5-min Rain = 0
KMCS 201615Z 18012KT 32/16 A299 RMK A01 T03210163  RH  041%=      5-min Rain = 0
KMCS 201620Z 18012G18KT 32/16 A299 RMK A01 T03200163  RH  041%=      5-min Rain = 0
KMCS 201625Z 18013G18KT 32/16 A2991 RMK A01 T03220163  RH  040%=      5-min Rain = 0
KMCS 201630Z 19013G19KT 32/16 A2991 RMK A01 T03210161  RH  040%=      5-min Rain = 0
KMCS 201635Z 18013KT 32/16 A299 RMK A01 T03240161  RH  040%=      5-min Rain = 0
KMCS 201640Z 18012G17KT 33/17 A299 RMK A01 T03250165  RH  040%=      5-min Rain = 0
KMCS 201645Z 17013KT 33/16 A299 RMK A01 T03290163  RH  039%=      5-min Rain = 0
KMCS 201650Z 17013G18KT 33/17 A299 RMK A01 T03290165  RH  040%=      5-min Rain = 0
KMCS 201655Z 17010G16KT 33/17 A299 RMK A01 T03330168  RH  039%=      5-min Rain = 0
KMCS 201700Z 17012G18KT 33/17 A299 RMK A01 T03340168  RH  039%=      5-min Rain = 0
KMCS 201705Z 17011G17KT 34/17 A299 RMK A01 T03380170  RH  039%=      5-min Rain = 0
KMCS 201710Z 17014G20KT 34/17 A299 RMK A01 T03380169  RH  038%=      5-min Rain = 0
KMCS 201715Z 17013G20KT 34/17 A299 RMK A01 T03390169  RH  038%=      5-min Rain = 0
KMCS 201720Z 17014G19KT 34/17 A299 RMK A01 T03370169  RH  039%=      5-min Rain = 0
KMCS 201725Z 18012G17KT 34/17 A299 RMK A01 T03390167  RH  038%=      5-min Rain = 0
KMCS 201730Z 17013G19KT 34/17 A299 RMK A01 T03430167  RH  037%=      5-min Rain = 0
KMCS 201735Z 17015G22KT 34/16 A299 RMK A01 T03390164  RH  037%=      5-min Rain = 0
KMCS 201740Z 17015KT 34/17 A299 RMK A01 T03430165  RH  036%=      5-min Rain = 0
KMCS 201745Z 17014G19KT 35/17 A299 RMK A01 T03450170  RH  037%=      5-min Rain = 0
KMCS 201750Z 18013KT 35/17 A299 RMK A01 T03450170  RH  037%=      5-min Rain = 0
KMCS 201755Z 17014G21KT 35/17 A299 RMK A01 T03470171  RH  037%=      5-min Rain = 0
KMCS 201800Z 17015KT 35/17 A299 RMK A01 T03470170  RH  037%=      5-min Rain = 0
KMCS 201805Z 17014G22KT 35/17 A299 RMK A01 T03490168  RH  036%=      5-min Rain = 0
KMCS 201810Z 17015G20KT 35/17 A2989 RMK A01 T03490167  RH  036%=      5-min Rain = 0
KMCS 201815Z 16014G20KT 35/17 A2989 RMK A01 T03480168  RH  036%=      5-min Rain = 0
KMCS 201820Z 17015G20KT 35/17 A2989 RMK A01 T03470172  RH  037%=      5-min Rain = 0
KMCS 201825Z 16014G20KT 35/17 A2989 RMK A01 T03480173  RH  037%=      5-min Rain = 0
KMCS 201830Z 16012G18KT 35/17 A2989 RMK A01 T03510170  RH  036%=      5-min Rain = 0
KMCS 201835Z 16015G22KT 35/17 A2989 RMK A01 T03530169  RH  035%=      5-min Rain = 0
KMCS 201840Z 16016G21KT 35/16 A2989 RMK A01 T03500160  RH  034%=      5-min Rain = 0
KMCS 201845Z 17015G20KT 35/17 A2989 RMK A01 T03500165  RH  035%=      5-min Rain = 0
KMCS 201850Z 17016G22KT 35/17 A2989 RMK A01 T03510168  RH  035%=      5-min Rain = 0
KMCS 201855Z 16016G22KT 35/16 A2989 RMK A01 T03530157  RH  033%=      5-min Rain = 0
KMCS 201900Z 16018G24KT 35/17 A2988 RMK A01 T03530165  RH  034%=      5-min Rain = 0
KMCS 201905Z 16015G23KT 36/17 A2988 RMK A01 T03550165  RH  034%=      5-min Rain = 0
KMCS 201910Z 16017G25KT 35/16 A2988 RMK A01 T03540163  RH  034%=      5-min Rain = 0
KMCS 201915Z 17017G23KT 36/16 A2988 RMK A01 T03570155  RH  031%=      5-min Rain = 0
KMCS 201920Z 17017G24KT 36/15 A2988 RMK A01 T03580154  RH  031%=      5-min Rain = 0
KMCS 201925Z 17015G26KT 36/16 A2988 RMK A01 T03590164  RH  033%=      5-min Rain = 0
KMCS 201930Z 18017G22KT 36/15 A2988 RMK A01 T03610153  RH  031%=      5-min Rain = 0
KMCS 201935Z 16015G25KT 36/16 A2987 RMK A01 T03580155  RH  031%=      5-min Rain = 0
KMCS 201940Z 17016G25KT 36/16 A2987 RMK A01 T03620157  RH  031%=      5-min Rain = 0
KMCS 201945Z 17019G26KT 36/15 A2987 RMK A01 T03580153  RH  031%=      5-min Rain = 0
KMCS 201950Z 17018G24KT 36/14 A2987 RMK A01 T03590142  RH  029%=      5-min Rain = 0
KMCS 201955Z 16018G24KT 36/15 A2987 RMK A01 T03580153  RH  031%=      5-min Rain = 0
KMCS 202000Z 17018G24KT 36/15 A2987 RMK A01 T03590154  RH  031%=      5-min Rain = 0
KMCS 202005Z 17017G24KT 36/15 A2987 RMK A01 T03590149  RH  030%=      5-min Rain = 0
KMCS 202010Z 17017G23KT 36/15 A2986 RMK A01 T03600148  RH  030%=      5-min Rain = 0
KMCS 202015Z 16016G22KT 36/16 A2986 RMK A01 T03630155  RH  030%=      5-min Rain = 0
KMCS 202020Z 18018G24KT 36/15 A2986 RMK A01 T03630150  RH  030%=      5-min Rain = 0
KMCS 202025Z 17016G25KT 36/15 A2986 RMK A01 T03620153  RH  030%=      5-min Rain = 0
KMCS 202030Z 17018G27KT 36/15 A2986 RMK A01 T03620152  RH  030%=      5-min Rain = 0
KMCS 202035Z 16018G25KT 36/15 A2986 RMK A01 T03610151  RH  030%=      5-min Rain = 0
KMCS 202040Z 16017G24KT 36/15 A2986 RMK A01 T03610153  RH  030%=      5-min Rain = 0
KMCS 202045Z 17016G24KT 36/14 A2986 RMK A01 T03640144  RH  028%=      5-min Rain = 0
KMCS 202050Z 17014G20KT 37/16 A2986 RMK A01 T03690155  RH  029%=      5-min Rain = 0
KMCS 202055Z 16017G25KT 37/15 A2986 RMK A01 T03660153  RH  030%=      5-min Rain = 0
KMCS 202100Z 16016G24KT 36/15 A2986 RMK A01 T03640150  RH  029%=      5-min Rain = 0
KMCS 202105Z 17018G24KT 37/15 A2986 RMK A01 T03660150  RH  029%=      5-min Rain = 0
KMCS 202110Z 17018G25KT 37/15 A2985 RMK A01 T03650147  RH  029%=      5-min Rain = 0
KMCS 202115Z 15016G25KT 37/15 A2985 RMK A01 T03650149  RH  029%=      5-min Rain = 0
KMCS 202120Z 16017G24KT 36/15 A2985 RMK A01 T03640149  RH  029%=      5-min Rain = 0
KMCS 202125Z 17016G24KT 37/15 A2985 RMK A01 T03670146  RH  028%=      5-min Rain = 0
KMCS 202130Z 18017G25KT 37/14 A2985 RMK A01 T03710144  RH  027%=      5-min Rain = 0
KMCS 202135Z 17015G22KT 37/14 A2985 RMK A01 T03670143  RH  028%=      5-min Rain = 0
KMCS 202140Z 18015G23KT 37/15 A2985 RMK A01 T03700145  RH  028%=      5-min Rain = 0
KMCS 202145Z 16016G23KT 37/15 A2985 RMK A01 T03690147  RH  028%=      5-min Rain = 0
KMCS 202150Z 15016G21KT 37/14 A2985 RMK A01 T03680144  RH  028%=      5-min Rain = 0
KMCS 202155Z 17017G23KT 37/14 A2985 RMK A01 T03690141  RH  027%=      5-min Rain = 0
KMCS 202200Z 17014G22KT 37/14 A2985 RMK A01 T03690144  RH  027%=      5-min Rain = 0
KMCS 202205Z 17016KT 37/14 A2985 RMK A01 T03710143  RH  027%=      5-min Rain = 0
KMCS 202210Z 17016G21KT 37/14 A2985 RMK A01 T03690143  RH  027%=      5-min Rain = 0
KMCS 202215Z 17015KT 37/14 A2984 RMK A01 T03690144  RH  027%=      5-min Rain = 0
KMCS 202220Z 16015G22KT 37/14 A2984 RMK A01 T03700143  RH  027%=      5-min Rain = 0
KMCS 202225Z 17016G21KT 37/14 A2984 RMK A01 T03700143  RH  027%=      5-min Rain = 0
KMCS 202230Z 16017G24KT 37/14 A2984 RMK A01 T03680142  RH  027%=      5-min Rain = 0
KMCS 202235Z 15014G22KT 37/14 A2984 RMK A01 T03670143  RH  027%=      5-min Rain = 0
KMCS 202240Z 15017G25KT 37/14 A2984 RMK A01 T03680142  RH  027%=      5-min Rain = 0
KMCS 202245Z 15015G22KT 37/14 A2983 RMK A01 T03650143  RH  028%=      5-min Rain = 0
KMCS 202250Z 16017G22KT 37/14 A2983 RMK A01 T03660142  RH  027%=      5-min Rain = 0
KMCS 202255Z 16015G20KT 37/14 A2983 RMK A01 T03660141  RH  027%=      5-min Rain = 0
KMCS 202300Z 16014G19KT 37/14 A2983 RMK A01 T03670144  RH  028%=      5-min Rain = 0
KMCS 202305Z 15015G20KT 37/14 A2983 RMK A01 T03660143  RH  028%=      5-min Rain = 0
KMCS 202310Z 16015G20KT 37/14 A2983 RMK A01 T03650142  RH  028%=      5-min Rain = 0
KMCS 202315Z 16013G19KT 37/14 A2983 RMK A01 T03670144  RH  028%=      5-min Rain = 0
KMCS 202320Z 17016G23KT 37/14 A2983 RMK A01 T03670143  RH  028%=      5-min Rain = 0
KMCS 202325Z 16014G23KT 37/14 A2983 RMK A01 T03650142  RH  028%=      5-min Rain = 0
KMCS 202330Z 16016G24KT 36/14 A2982 RMK A01 T03640141  RH  028%=      5-min Rain = 0
KMCS 202335Z 16016G23KT 36/14 A2982 RMK A01 T03640141  RH  028%=      5-min Rain = 0
KMCS 202340Z 16015G21KT 36/14 A2982 RMK A01 T03640142  RH  028%=      5-min Rain = 0
KMCS 202345Z 16016G24KT 36/14 A2982 RMK A01 T03630141  RH  028%=      5-min Rain = 0
KMCS 202350Z 15016G24KT 36/14 A2982 RMK A01 T03610141  RH  028%=      5-min Rain = 0
KMCS 202355Z 15016G23KT 36/14 A2982 RMK A01 T03590139  RH  028%=      5-min Rain = 0
KMCS 210000Z 15014G20KT 36/14 A2982 RMK A01 T03590141  RH  028%=      5-min Rain = 0
KMCS 210005Z 15013G18KT 36/14 A2982 RMK A01 T03590141  RH  028%=      5-min Rain = 0
KMCS 210010Z 15014G19KT 36/14 A2982 RMK A01 T03580141  RH  028%=      5-min Rain = 0
KMCS 210015Z 15014G22KT 36/14 A2983 RMK A01 T03580141  RH  029%=      5-min Rain = 0
KMCS 210020Z 15015G21KT 36/14 A2982 RMK A01 T03560138  RH  028%=      5-min Rain = 0
KMCS 210025Z 15012G21KT 36/14 A2982 RMK A01 T03560141  RH  029%=      5-min Rain = 0
KMCS 210030Z 15014G21KT 35/14 A2983 RMK A01 T03540141  RH  029%=      5-min Rain = 0
KMCS 210035Z 15017G22KT 35/14 A2982 RMK A01 T03530139  RH  029%=      5-min Rain = 0
KMCS 210040Z 15015G21KT 35/14 A2983 RMK A01 T03520139  RH  029%=      5-min Rain = 0
KMCS 210045Z 15014G19KT 35/14 A2983 RMK A01 T03510138  RH  029%=      5-min Rain = 0
KMCS 210050Z 14013G18KT 35/14 A2983 RMK A01 T03490140  RH  030%=      5-min Rain = 0
KMCS 210055Z 15012G17KT 35/14 A2983 RMK A01 T03470140  RH  030%=      5-min Rain = 0
KMCS 210100Z 15013KT 35/14 A2984 RMK A01 T03460139  RH  030%=      5-min Rain = 0
KMCS 210105Z 14011G16KT 34/14 A2984 RMK A01 T03430143  RH  031%=      5-min Rain = 0
KMCS 210110Z 14013G18KT 34/15 A2984 RMK A01 T03390146  RH  033%=      5-min Rain = 0
KMCS 210115Z 14014G19KT 34/15 A2984 RMK A01 T03380145  RH  033%=      5-min Rain = 0
KMCS 210120Z 14014G20KT 34/15 A2984 RMK A01 T03350146  RH  033%=      5-min Rain = 0
KMCS 210125Z 14014G19KT 33/15 A2984 RMK A01 T03330146  RH  034%=      5-min Rain = 0
KMCS 210130Z 14013G18KT 33/15 A2984 RMK A01 T03300147  RH  035%=      5-min Rain = 0
KMCS 210135Z 14014G20KT 33/15 A2984 RMK A01 T03280147  RH  035%=      5-min Rain = 0
KMCS 210140Z 14013G18KT 33/15 A2984 RMK A01 T03260147  RH  035%=      5-min Rain = 0
KMCS 210145Z 14014G20KT 32/15 A2984 RMK A01 T03240147  RH  036%=      5-min Rain = 0
KMCS 210150Z 14012G18KT 32/15 A2985 RMK A01 T03220149  RH  037%=      5-min Rain = 0
KMCS 210155Z 14013G19KT 32/15 A2985 RMK A01 T03190149  RH  037%=      5-min Rain = 0
KMCS 210200Z 14014G20KT 32/15 A2984 RMK A01 T03190148  RH  037%=      5-min Rain = 0
KMCS 210205Z 14014G21KT 32/15 A2984 RMK A01 T03180149  RH  038%=      5-min Rain = 0
KMCS 210210Z 14014G19KT 32/15 A2985 RMK A01 T03150149  RH  038%=      5-min Rain = 0
KMCS 210215Z 14014G19KT 31/15 A2985 RMK A01 T03130150  RH  039%=      5-min Rain = 0
KMCS 210220Z 14013G19KT 31/15 A2985 RMK A01 T03120151  RH  039%=      5-min Rain = 0
KMCS 210225Z 14014G20KT 31/15 A2985 RMK A01 T03120151  RH  039%=      5-min Rain = 0
KMCS 210230Z 14014G20KT 31/15 A2985 RMK A01 T03110151  RH  040%=      5-min Rain = 0
KMCS 210235Z 14015G21KT 31/15 A2985 RMK A01 T03110151  RH  040%=      5-min Rain = 0
KMCS 210240Z 15013G19KT 31/15 A2986 RMK A01 T03100152  RH  040%=      5-min Rain = 0
KMCS 210245Z 14013G19KT 31/15 A2986 RMK A01 T03080152  RH  041%=      5-min Rain = 0
KMCS 210250Z 15013KT 31/15 A2986 RMK A01 T03070153  RH  041%=      5-min Rain = 0
KMCS 210255Z 15014G20KT 31/15 A2986 RMK A01 T03060153  RH  041%=      5-min Rain = 0
KMCS 210300Z 14013G18KT 30/15 A2987 RMK A01 T03040153  RH  042%=      5-min Rain = 0
KMCS 210305Z 14012G18KT 30/15 A2987 RMK A01 T03010153  RH  043%=      5-min Rain = 0
KMCS 210310Z 14013G18KT 30/15 A2987 RMK A01 T03000154  RH  043%=      5-min Rain = 0
KMCS 210315Z 14011G16KT 30/15 A2988 RMK A01 T02960154  RH  044%=      5-min Rain = 0
KMCS 210320Z 14012KT 29/16 A2988 RMK A01 T02930156  RH  046%=      5-min Rain = 0
KMCS 210325Z 14012G17KT 29/16 A2988 RMK A01 T02900160  RH  047%=      5-min Rain = 0
KMCS 210330Z 14012G18KT 29/16 A2989 RMK A01 T02890163  RH  049%=      5-min Rain = 0
KMCS 210335Z 14014G19KT 29/17 A2989 RMK A01 T02880166  RH  050%=      5-min Rain = 0
KMCS 210340Z 14013G18KT 29/17 A299 RMK A01 T02870168  RH  051%=      5-min Rain = 0
KMCS 210345Z 14013G19KT 29/17 A299 RMK A01 T02870170  RH  052%=      5-min Rain = 0
KMCS 210350Z 14013G18KT 29/17 A299 RMK A01 T02860170  RH  052%=      5-min Rain = 0
KMCS 210355Z 15012G19KT 29/17 A299 RMK A01 T02850171  RH  052%=      5-min Rain = 0
KMCS 210400Z 15012G18KT 28/17 A299 RMK A01 T02840171  RH  053%=      5-min Rain = 0
KMCS 210405Z 15014G22KT 28/17 A299 RMK A01 T02840170  RH  053%=      5-min Rain = 0
KMCS 210410Z 15014G20KT 28/17 A299 RMK A01 T02830169  RH  053%=      5-min Rain = 0
KMCS 210415Z 15014G19KT 28/17 A299 RMK A01 T02820169  RH  053%=      5-min Rain = 0
KMCS 210420Z 15014G21KT 28/17 A299 RMK A01 T02810168  RH  053%=      5-min Rain = 0
KMCS 210425Z 15013G19KT 28/17 A299 RMK A01 T02800168  RH  053%=      5-min Rain = 0
KMCS 210430Z 15012G18KT 28/17 A299 RMK A01 T02780168  RH  053%=      5-min Rain = 0
KMCS 210435Z 15013G19KT 28/17 A299 RMK A01 T02770167  RH  054%=      5-min Rain = 0
KMCS 210440Z 14013G19KT 28/17 A299 RMK A01 T02770167  RH  054%=      5-min Rain = 0
KMCS 210445Z 15014G19KT 28/17 A299 RMK A01 T02760166  RH  054%=      5-min Rain = 0
KMCS 210450Z 15012G18KT 28/17 A2991 RMK A01 T02750166  RH  054%=      5-min Rain = 0
KMCS 210455Z 15012G17KT 27/17 A2991 RMK A01 T02740166  RH  054%=      5-min Rain = 0

Page generated in 0.0095 seconds.